sensor_id;sensor_type;location;lat;lon;timestamp;pressure;altitude;pressure_sealevel;temperature;humidity
75942;BME280;64622;46.220;19.878;2022-12-24T00:00:08;100135.78;;;7.26;100.00
75942;BME280;64622;46.220;19.878;2022-12-24T00:02:36;100132.81;;;7.28;100.00
75942;BME280;64622;46.220;19.878;2022-12-24T00:05:02;100121.59;;;7.25;100.00
75942;BME280;64622;46.220;19.878;2022-12-24T00:07:29;100128.06;;;7.22;100.00
75942;BME280;64622;46.220;19.878;2022-12-24T00:09:59;100134.22;;;7.32;100.00
75942;BME280;64622;46.220;19.878;2022-12-24T00:12:26;100135.50;;;7.19;100.00
75942;BME280;64622;46.220;19.878;2022-12-24T00:14:52;100124.44;;;7.14;100.00
75942;BME280;64622;46.220;19.878;2022-12-24T00:17:19;100126.50;;;7.20;100.00
75942;BME280;64622;46.220;19.878;2022-12-24T00:19:46;100128.91;;;7.13;100.00
75942;BME280;64622;46.220;19.878;2022-12-24T00:22:13;100137.16;;;7.20;100.00
75942;BME280;64622;46.220;19.878;2022-12-24T00:24:40;100137.72;;;7.14;100.00
75942;BME280;64622;46.220;19.878;2022-12-24T00:27:06;100128.91;;;7.13;100.00
75942;BME280;64622;46.220;19.878;2022-12-24T00:29:34;100136.59;;;7.17;100.00
75942;BME280;64622;46.220;19.878;2022-12-24T00:32:00;100133.13;;;7.07;100.00
75942;BME280;64622;46.220;19.878;2022-12-24T00:34:27;100136.31;;;7.10;100.00
75942;BME280;64622;46.220;19.878;2022-12-24T00:36:53;100135.63;;;7.18;100.00
75942;BME280;64622;46.220;19.878;2022-12-24T00:39:20;100123.31;;;7.17;100.00
75942;BME280;64622;46.220;19.878;2022-12-24T00:41:47;100136.31;;;7.10;100.00
75942;BME280;64622;46.220;19.878;2022-12-24T00:44:13;100135.63;;;7.18;100.00
75942;BME280;64622;46.220;19.878;2022-12-24T00:46:41;100135.22;;;7.12;100.00
75942;BME280;64622;46.220;19.878;2022-12-24T00:49:08;100128.50;;;7.18;100.00
75942;BME280;64622;46.220;19.878;2022-12-24T00:51:37;100130.97;;;7.19;100.00
75942;BME280;64622;46.220;19.878;2022-12-24T00:54:05;100120.91;;;7.13;100.00
75942;BME280;64622;46.220;19.878;2022-12-24T00:56:32;100127.19;;;7.22;100.00
75942;BME280;64622;46.220;19.878;2022-12-24T00:58:59;100127.06;;;7.23;100.00
75942;BME280;64622;46.220;19.878;2022-12-24T01:01:26;100134.06;;;7.34;100.00
75942;BME280;64622;46.220;19.878;2022-12-24T01:03:54;100135.59;;;7.27;100.00
75942;BME280;64622;46.220;19.878;2022-12-24T01:06:39;100138.13;;;7.28;100.00
75942;BME280;64622;46.220;19.878;2022-12-24T01:09:06;100141.34;;;7.32;100.00
75942;BME280;64622;46.220;19.878;2022-12-24T01:11:33;100140.78;;;7.28;100.00
75942;BME280;64622;46.220;19.878;2022-12-24T01:14:00;100143.75;;;7.26;100.00
75942;BME280;64622;46.220;19.878;2022-12-24T01:16:26;100148.19;;;7.34;100.00
75942;BME280;64622;46.220;19.878;2022-12-24T01:18:53;100145.84;;;7.32;100.00
75942;BME280;64622;46.220;19.878;2022-12-24T01:21:20;100140.94;;;7.37;100.00
75942;BME280;64622;46.220;19.878;2022-12-24T01:23:47;100141.63;;;7.48;100.00
75942;BME280;64622;46.220;19.878;2022-12-24T01:26:14;100141.47;;;7.40;100.00
75942;BME280;64622;46.220;19.878;2022-12-24T01:28:41;100130.56;;;7.43;100.00
75942;BME280;64622;46.220;19.878;2022-12-24T01:31:17;100134.34;;;7.41;100.00
75942;BME280;64622;46.220;19.878;2022-12-24T01:33:45;100143.47;;;7.38;100.00
75942;BME280;64622;46.220;19.878;2022-12-24T01:36:12;100158.31;;;7.31;100.00
75942;BME280;64622;46.220;19.878;2022-12-24T01:38:39;100166.16;;;7.23;100.00
75942;BME280;64622;46.220;19.878;2022-12-24T01:41:06;100170.09;;;7.19;100.00
75942;BME280;64622;46.220;19.878;2022-12-24T01:43:51;100147.12;;;7.18;100.00
75942;BME280;64622;46.220;19.878;2022-12-24T01:46:28;100143.59;;;7.27;100.00
75942;BME280;64622;46.220;19.878;2022-12-24T01:48:59;100145.28;;;7.28;100.00
75942;BME280;64622;46.220;19.878;2022-12-24T01:54:10;100131.81;;;7.39;100.00
75942;BME280;64622;46.220;19.878;2022-12-24T01:56:43;100118.37;;;7.31;100.00
75942;BME280;64622;46.220;19.878;2022-12-24T01:59:12;100122.16;;;7.28;100.00
75942;BME280;64622;46.220;19.878;2022-12-24T02:01:40;100123.41;;;7.24;100.00
75942;BME280;64622;46.220;19.878;2022-12-24T02:04:16;100126.50;;;7.29;100.00
75942;BME280;64622;46.220;19.878;2022-12-24T02:06:47;100121.47;;;7.27;100.00
75942;BME280;64622;46.220;19.878;2022-12-24T02:09:14;100126.22;;;7.32;100.00
75942;BME280;64622;46.220;19.878;2022-12-24T02:11:41;100108.28;;;7.34;100.00
75942;BME280;64622;46.220;19.878;2022-12-24T02:14:10;100112.06;;;7.42;100.00
75942;BME280;64622;46.220;19.878;2022-12-24T02:17:01;100117.78;;;7.47;100.00
75942;BME280;64622;46.220;19.878;2022-12-24T02:19:57;100120.16;;;7.49;100.00
75942;BME280;64622;46.220;19.878;2022-12-24T02:25:34;100123.81;;;7.48;100.00
75942;BME280;64622;46.220;19.878;2022-12-24T02:31:09;100130.12;;;7.47;100.00
75942;BME280;64622;46.220;19.878;2022-12-24T02:33:46;100114.13;;;7.47;100.00
75942;BME280;64622;46.220;19.878;2022-12-24T02:38:53;100115.69;;;7.50;100.00
75942;BME280;64622;46.220;19.878;2022-12-24T02:41:24;100108.69;;;7.49;100.00
75942;BME280;64622;46.220;19.878;2022-12-24T02:43:54;100108.84;;;7.38;100.00
75942;BME280;64622;46.220;19.878;2022-12-24T02:46:26;100113.03;;;7.31;100.00
75942;BME280;64622;46.220;19.878;2022-12-24T02:48:58;100124.94;;;7.27;100.00
75942;BME280;64622;46.220;19.878;2022-12-24T02:51:25;100113.03;;;7.31;100.00
75942;BME280;64622;46.220;19.878;2022-12-24T02:53:51;100116.28;;;7.25;100.00
75942;BME280;64622;46.220;19.878;2022-12-24T02:56:46;100125.53;;;7.31;100.00
75942;BME280;64622;46.220;19.878;2022-12-24T03:04:56;100111.37;;;7.30;100.00
75942;BME280;64622;46.220;19.878;2022-12-24T03:07:37;100119.63;;;7.27;100.00
75942;BME280;64622;46.220;19.878;2022-12-24T03:10:26;100114.47;;;7.16;100.00
75942;BME280;64622;46.220;19.878;2022-12-24T03:13:01;100112.50;;;7.28;100.00
75942;BME280;64622;46.220;19.878;2022-12-24T03:15:30;100115.44;;;7.34;100.00
75942;BME280;64622;46.220;19.878;2022-12-24T03:18:00;100121.44;;;7.36;100.00
75942;BME280;64622;46.220;19.878;2022-12-24T03:20:36;100115.28;;;7.36;100.00
75942;BME280;64622;46.220;19.878;2022-12-24T03:23:06;100113.91;;;7.32;100.00
75942;BME280;64622;46.220;19.878;2022-12-24T03:25:33;100116.16;;;7.27;100.00
75942;BME280;64622;46.220;19.878;2022-12-24T03:28:05;100111.37;;;7.30;100.00
75942;BME280;64622;46.220;19.878;2022-12-24T03:30:32;100115.03;;;7.29;100.00
75942;BME280;64622;46.220;19.878;2022-12-24T03:33:00;100121.75;;;7.23;100.00
75942;BME280;64622;46.220;19.878;2022-12-24T03:35:26;100117.25;;;7.14;100.00
75942;BME280;64622;46.220;19.878;2022-12-24T03:37:53;100122.03;;;7.21;100.00
75942;BME280;64622;46.220;19.878;2022-12-24T03:40:20;100123.44;;;7.15;100.00
75942;BME280;64622;46.220;19.878;2022-12-24T03:42:46;100126.91;;;7.34;100.00
75942;BME280;64622;46.220;19.878;2022-12-24T03:45:14;100135.06;;;7.33;100.00
75942;BME280;64622;46.220;19.878;2022-12-24T03:47:40;100141.34;;;7.42;100.00
75942;BME280;64622;46.220;19.878;2022-12-24T03:50:08;100148.47;;;7.41;100.00
75942;BME280;64622;46.220;19.878;2022-12-24T03:52:36;100157.19;;;7.43;100.00
75942;BME280;64622;46.220;19.878;2022-12-24T03:55:02;100156.06;;;7.46;100.00
75942;BME280;64622;46.220;19.878;2022-12-24T03:57:29;100163.16;;;7.54;100.00
75942;BME280;64622;46.220;19.878;2022-12-24T03:59:56;100158.41;;;7.58;100.00
75942;BME280;64622;46.220;19.878;2022-12-24T04:02:23;100172.84;;;7.65;100.00
75942;BME280;64622;46.220;19.878;2022-12-24T04:04:49;100168.06;;;7.68;100.00
75942;BME280;64622;46.220;19.878;2022-12-24T04:07:16;100162.72;;;7.68;100.00
75942;BME280;64622;46.220;19.878;2022-12-24T04:09:45;100162.28;;;7.82;100.00
75942;BME280;64622;46.220;19.878;2022-12-24T04:12:12;100168.09;;;7.95;100.00
75942;BME280;64622;46.220;19.878;2022-12-24T04:14:39;100176.28;;;7.94;100.00
75942;BME280;64622;46.220;19.878;2022-12-24T04:17:05;100161.28;;;7.83;100.00
75942;BME280;64622;46.220;19.878;2022-12-24T04:19:32;100164.09;;;7.82;100.00
75942;BME280;64622;46.220;19.878;2022-12-24T04:21:59;100177.69;;;7.88;100.00
75942;BME280;64622;46.220;19.878;2022-12-24T04:24:25;100180.34;;;7.88;100.00
75942;BME280;64622;46.220;19.878;2022-12-24T04:26:53;100179.13;;;7.73;100.00
75942;BME280;64622;46.220;19.878;2022-12-24T04:29:19;100173.09;;;7.72;100.00
75942;BME280;64622;46.220;19.878;2022-12-24T04:31:45;100180.25;;;7.71;100.00
75942;BME280;64622;46.220;19.878;2022-12-24T04:34:13;100174.88;;;7.80;100.00
75942;BME280;64622;46.220;19.878;2022-12-24T04:36:39;100156.28;;;7.71;100.00
75942;BME280;64622;46.220;19.878;2022-12-24T04:39:05;100171.09;;;7.83;100.00
75942;BME280;64622;46.220;19.878;2022-12-24T04:41:33;100167.75;;;7.81;100.00
75942;BME280;64622;46.220;19.878;2022-12-24T04:43:59;100156.88;;;8.02;100.00
75942;BME280;64622;46.220;19.878;2022-12-24T04:46:27;100149.31;;;7.97;100.00
75942;BME280;64622;46.220;19.878;2022-12-24T04:48:58;100145.63;;;8.07;100.00
75942;BME280;64622;46.220;19.878;2022-12-24T04:51:26;100163.44;;;8.07;100.00
75942;BME280;64622;46.220;19.878;2022-12-24T04:53:54;100160.38;;;8.02;100.00
75942;BME280;64622;46.220;19.878;2022-12-24T04:56:27;100159.97;;;8.07;100.00
75942;BME280;64622;46.220;19.878;2022-12-24T04:58:54;100163.34;;;7.99;100.00
75942;BME280;64622;46.220;19.878;2022-12-24T05:01:27;100166.22;;;8.15;100.00
75942;BME280;64622;46.220;19.878;2022-12-24T05:03:54;100161.88;;;8.24;100.00
75942;BME280;64622;46.220;19.878;2022-12-24T05:06:24;100157.72;;;8.39;99.70
75942;BME280;64622;46.220;19.878;2022-12-24T05:08:56;100167.75;;;8.27;100.00
75942;BME280;64622;46.220;19.878;2022-12-24T05:11:24;100165.38;;;8.24;100.00
75942;BME280;64622;46.220;19.878;2022-12-24T05:13:50;100148.09;;;8.28;100.00
75942;BME280;64622;46.220;19.878;2022-12-24T05:16:19;100156.19;;;8.36;100.00
75942;BME280;64622;46.220;19.878;2022-12-24T05:18:46;100149.78;;;8.29;100.00
75942;BME280;64622;46.220;19.878;2022-12-24T05:21:16;100137.19;;;8.12;100.00
75942;BME280;64622;46.220;19.878;2022-12-24T05:23:42;100144.84;;;8.34;100.00
75942;BME280;64622;46.220;19.878;2022-12-24T05:26:33;100146.81;;;8.32;100.00
75942;BME280;64622;46.220;19.878;2022-12-24T05:29:02;100153.59;;;8.17;100.00
75942;BME280;64622;46.220;19.878;2022-12-24T05:31:31;100169.31;;;8.10;100.00
75942;BME280;64622;46.220;19.878;2022-12-24T05:33:59;100186.84;;;8.13;100.00
75942;BME280;64622;46.220;19.878;2022-12-24T05:36:26;100187.69;;;8.23;100.00
75942;BME280;64622;46.220;19.878;2022-12-24T05:38:53;100180.81;;;8.21;100.00
75942;BME280;64622;46.220;19.878;2022-12-24T05:41:20;100180.69;;;8.13;100.00
75942;BME280;64622;46.220;19.878;2022-12-24T05:43:46;100190.22;;;8.05;100.00
75942;BME280;64622;46.220;19.878;2022-12-24T05:46:15;100194.75;;;7.95;100.00
75942;BME280;64622;46.220;19.878;2022-12-24T05:48:45;100214.53;;;8.02;100.00
75942;BME280;64622;46.220;19.878;2022-12-24T05:51:13;100214.41;;;7.94;100.00
75942;BME280;64622;46.220;19.878;2022-12-24T05:53:40;100223.06;;;8.06;100.00
75942;BME280;64622;46.220;19.878;2022-12-24T05:56:09;100219.16;;;8.00;100.00
75942;BME280;64622;46.220;19.878;2022-12-24T05:58:37;100217.91;;;7.95;100.00
75942;BME280;64622;46.220;19.878;2022-12-24T06:01:05;100221.81;;;8.00;100.00
75942;BME280;64622;46.220;19.878;2022-12-24T06:03:32;100225.19;;;7.93;100.00
75942;BME280;64622;46.220;19.878;2022-12-24T06:06:09;100218.59;;;7.97;100.00
75942;BME280;64622;46.220;19.878;2022-12-24T06:08:36;100217.91;;;7.95;100.00
75942;BME280;64622;46.220;19.878;2022-12-24T06:11:05;100226.19;;;7.92;100.00
75942;BME280;64622;46.220;19.878;2022-12-24T06:13:33;100221.72;;;7.93;100.00
75942;BME280;64622;46.220;19.878;2022-12-24T06:16:02;100220.84;;;7.92;100.00
75942;BME280;64622;46.220;19.878;2022-12-24T06:18:30;100202.66;;;7.87;100.00
75942;BME280;64622;46.220;19.878;2022-12-24T06:20:58;100199.53;;;8.02;100.00
75942;BME280;64622;46.220;19.878;2022-12-24T06:23:28;100210.75;;;7.95;100.00
75942;BME280;64622;46.220;19.878;2022-12-24T06:25:56;100204.75;;;7.84;100.00
75942;BME280;64622;46.220;19.878;2022-12-24T06:28:23;100207.56;;;7.82;100.00
75942;BME280;64622;46.220;19.878;2022-12-24T06:30:50;100211.31;;;7.89;100.00
75942;BME280;64622;46.220;19.878;2022-12-24T06:33:18;100209.94;;;7.85;100.00
75942;BME280;64622;46.220;19.878;2022-12-24T06:35:46;100201.94;;;7.85;100.00
75942;BME280;64622;46.220;19.878;2022-12-24T06:38:14;100211.91;;;7.83;100.00
75942;BME280;64622;46.220;19.878;2022-12-24T06:40:43;100224.97;;;7.87;100.00
75942;BME280;64622;46.220;19.878;2022-12-24T06:43:10;100224.69;;;7.80;100.00
75942;BME280;64622;46.220;19.878;2022-12-24T06:45:38;100232.41;;;7.73;100.00
75942;BME280;64622;46.220;19.878;2022-12-24T06:48:05;100237.56;;;7.84;100.00
75942;BME280;64622;46.220;19.878;2022-12-24T06:50:32;100226.53;;;7.70;100.00
75942;BME280;64622;46.220;19.878;2022-12-24T06:52:59;100211.53;;;7.69;100.00
75942;BME280;64622;46.220;19.878;2022-12-24T06:55:26;100211.78;;;7.75;100.00
75942;BME280;64622;46.220;19.878;2022-12-24T06:57:53;100216.41;;;7.73;100.00
75942;BME280;64622;46.220;19.878;2022-12-24T07:00:22;100225.66;;;7.79;100.00
75942;BME280;64622;46.220;19.878;2022-12-24T07:02:49;100223.81;;;7.79;100.00
75942;BME280;64622;46.220;19.878;2022-12-24T07:05:16;100209.38;;;7.82;100.00
75942;BME280;64622;46.220;19.878;2022-12-24T07:07:43;100217.59;;;7.98;100.00
75942;BME280;64622;46.220;19.878;2022-12-24T07:10:14;100227.72;;;7.94;100.00
75942;BME280;64622;46.220;19.878;2022-12-24T07:12:41;100244.13;;;7.99;100.00
75942;BME280;64622;46.220;19.878;2022-12-24T07:15:09;100233.50;;;7.90;100.00
75942;BME280;64622;46.220;19.878;2022-12-24T07:17:36;100237.81;;;8.00;100.00
75942;BME280;64622;46.220;19.878;2022-12-24T07:20:05;100243.31;;;7.89;100.00
75942;BME280;64622;46.220;19.878;2022-12-24T07:22:33;100247.50;;;7.92;100.00
75942;BME280;64622;46.220;19.878;2022-12-24T07:25:00;100259.84;;;7.93;100.00
75942;BME280;64622;46.220;19.878;2022-12-24T07:27:26;100270.25;;;7.87;100.00
75942;BME280;64622;46.220;19.878;2022-12-24T07:29:56;100272.50;;;7.82;100.00
75942;BME280;64622;46.220;19.878;2022-12-24T07:32:22;100271.94;;;7.87;100.00
75942;BME280;64622;46.220;19.878;2022-12-24T07:34:49;100269.53;;;7.94;100.00
75942;BME280;64622;46.220;19.878;2022-12-24T07:37:16;100269.78;;;8.00;100.00
75942;BME280;64622;46.220;19.878;2022-12-24T07:39:43;100281.84;;;8.04;100.00
75942;BME280;64622;46.220;19.878;2022-12-24T07:42:10;100287.59;;;8.09;100.00
75942;BME280;64622;46.220;19.878;2022-12-24T07:44:37;100283.94;;;8.10;100.00
75942;BME280;64622;46.220;19.878;2022-12-24T07:47:03;100281.44;;;8.09;100.00
75942;BME280;64622;46.220;19.878;2022-12-24T07:49:30;100287.59;;;8.19;100.00
75942;BME280;64622;46.220;19.878;2022-12-24T07:51:57;100287.59;;;8.19;100.00
75942;BME280;64622;46.220;19.878;2022-12-24T07:54:23;100279.00;;;8.15;100.00
75942;BME280;64622;46.220;19.878;2022-12-24T07:56:50;100279.44;;;8.21;100.00
75942;BME280;64622;46.220;19.878;2022-12-24T07:59:16;100273.41;;;8.18;100.00
75942;BME280;64622;46.220;19.878;2022-12-24T08:01:43;100277.34;;;8.14;100.00
75942;BME280;64622;46.220;19.878;2022-12-24T08:04:11;100271.44;;;8.21;100.00
75942;BME280;64622;46.220;19.878;2022-12-24T08:06:38;100289.69;;;8.25;100.00
75942;BME280;64622;46.220;19.878;2022-12-24T08:09:04;100293.34;;;8.24;100.00
75942;BME280;64622;46.220;19.878;2022-12-24T08:11:31;100291.66;;;8.23;100.00
75942;BME280;64622;46.220;19.878;2022-12-24T08:13:57;100296.25;;;8.31;100.00
75942;BME280;64622;46.220;19.878;2022-12-24T08:16:24;100296.84;;;8.34;100.00
75942;BME280;64622;46.220;19.878;2022-12-24T08:18:51;100295.13;;;8.33;100.00
75942;BME280;64622;46.220;19.878;2022-12-24T08:21:17;100302.28;;;8.42;100.00
75942;BME280;64622;46.220;19.878;2022-12-24T08:23:45;100294.53;;;8.49;100.00
75942;BME280;64622;46.220;19.878;2022-12-24T08:26:12;100310.06;;;8.63;100.00
75942;BME280;64622;46.220;19.878;2022-12-24T08:28:38;100306.22;;;8.75;100.00
75942;BME280;64622;46.220;19.878;2022-12-24T08:31:07;100300.59;;;8.78;100.00
75942;BME280;64622;46.220;19.878;2022-12-24T08:33:34;100310.16;;;8.80;100.00
75942;BME280;64622;46.220;19.878;2022-12-24T08:36:01;100330.72;;;8.97;100.00
75942;BME280;64622;46.220;19.878;2022-12-24T08:38:28;100326.75;;;9.01;100.00
75942;BME280;64622;46.220;19.878;2022-12-24T08:40:55;100325.00;;;9.19;98.81
75942;BME280;64622;46.220;19.878;2022-12-24T08:43:22;100337.00;;;9.33;98.39
75942;BME280;64622;46.220;19.878;2022-12-24T08:45:50;100342.88;;;9.36;98.76
75942;BME280;64622;46.220;19.878;2022-12-24T08:48:17;100334.97;;;9.44;97.81
75942;BME280;64622;46.220;19.878;2022-12-24T08:50:44;100339.97;;;9.47;98.50
75942;BME280;64622;46.220;19.878;2022-12-24T08:53:11;100333.59;;;9.58;97.20
75942;BME280;64622;46.220;19.878;2022-12-24T08:55:42;100341.53;;;9.67;96.92
75942;BME280;64622;46.220;19.878;2022-12-24T08:58:09;100355.81;;;9.76;96.11
75942;BME280;64622;46.220;19.878;2022-12-24T09:00:36;100362.91;;;9.85;96.07
75942;BME280;64622;46.220;19.878;2022-12-24T09:03:03;100369.06;;;10.12;94.91
75942;BME280;64622;46.220;19.878;2022-12-24T09:05:30;100360.25;;;10.20;93.36
75942;BME280;64622;46.220;19.878;2022-12-24T09:07:57;100369.84;;;10.48;93.72
75942;BME280;64622;46.220;19.878;2022-12-24T09:10:24;100359.06;;;10.40;93.42
75942;BME280;64622;46.220;19.878;2022-12-24T09:12:51;100367.72;;;10.34;93.45
75942;BME280;64622;46.220;19.878;2022-12-24T09:15:18;100374.53;;;10.28;93.86
75942;BME280;64622;46.220;19.878;2022-12-24T09:17:45;100378.06;;;10.29;93.31
75942;BME280;64622;46.220;19.878;2022-12-24T09:20:14;100382.69;;;10.27;94.61
75942;BME280;64622;46.220;19.878;2022-12-24T09:22:41;100368.12;;;10.21;94.77
75942;BME280;64622;46.220;19.878;2022-12-24T09:25:08;100386.47;;;10.34;93.78
75942;BME280;64622;46.220;19.878;2022-12-24T09:27:36;100386.59;;;10.32;94.60
75942;BME280;64622;46.220;19.878;2022-12-24T09:30:07;100388.12;;;10.35;93.81
75942;BME280;64622;46.220;19.878;2022-12-24T09:32:36;100389.34;;;10.40;92.90
75942;BME280;64622;46.220;19.878;2022-12-24T09:35:03;100387.34;;;10.42;92.96
75942;BME280;64622;46.220;19.878;2022-12-24T09:37:29;100378.81;;;10.39;93.55
75942;BME280;64622;46.220;19.878;2022-12-24T09:39:56;100383.22;;;10.48;92.60
75942;BME280;64622;46.220;19.878;2022-12-24T09:45:19;100394.97;;;10.55;92.61
75942;BME280;64622;46.220;19.878;2022-12-24T09:47:51;100394.34;;;10.61;92.48
75942;BME280;64622;46.220;19.878;2022-12-24T09:50:30;100407.78;;;10.69;91.51
75942;BME280;64622;46.220;19.878;2022-12-24T09:53:00;100408.84;;;10.76;91.33
75942;BME280;64622;46.220;19.878;2022-12-24T09:55:35;100422.94;;;10.78;91.29
75942;BME280;64622;46.220;19.878;2022-12-24T09:58:04;100415.56;;;10.80;90.99
75942;BME280;64622;46.220;19.878;2022-12-24T10:00:35;100422.81;;;10.87;90.47
75942;BME280;64622;46.220;19.878;2022-12-24T10:03:16;100429.53;;;10.91;89.87
75942;BME280;64622;46.220;19.878;2022-12-24T10:06:32;100429.19;;;10.94;89.32
75942;BME280;64622;46.220;19.878;2022-12-24T10:11:45;100441.94;;;11.18;87.91
75942;BME280;64622;46.220;19.878;2022-12-24T10:19:26;100446.06;;;11.46;85.59
75942;BME280;64622;46.220;19.878;2022-12-24T10:25:20;100443.94;;;11.57;84.72
75942;BME280;64622;46.220;19.878;2022-12-24T10:27:39;100440.66;;;11.63;84.93
75942;BME280;64622;46.220;19.878;2022-12-24T10:30:19;100435.97;;;11.65;83.04
75942;BME280;64622;46.220;19.878;2022-12-24T10:32:51;100436.34;;;11.78;82.84
75942;BME280;64622;46.220;19.878;2022-12-24T10:35:25;100442.75;;;11.93;83.36
75942;BME280;64622;46.220;19.878;2022-12-24T10:37:54;100438.44;;;12.08;83.28
75942;BME280;64622;46.220;19.878;2022-12-24T10:40:34;100432.41;;;12.14;82.38
75942;BME280;64622;46.220;19.878;2022-12-24T10:43:18;100439.47;;;12.23;82.02
75942;BME280;64622;46.220;19.878;2022-12-24T10:45:49;100439.12;;;12.18;82.16
75942;BME280;64622;46.220;19.878;2022-12-24T10:48:22;100430.56;;;12.15;82.28
75942;BME280;64622;46.220;19.878;2022-12-24T10:50:57;100433.22;;;12.07;82.34
75942;BME280;64622;46.220;19.878;2022-12-24T10:56:06;100417.25;;;11.89;82.65
75942;BME280;64622;46.220;19.878;2022-12-24T10:58:33;100430.72;;;12.05;82.35
75942;BME280;64622;46.220;19.878;2022-12-24T11:01:01;100408.38;;;11.89;82.68
75942;BME280;64622;46.220;19.878;2022-12-24T11:03:31;100416.44;;;11.97;81.98
75942;BME280;64622;46.220;19.878;2022-12-24T11:06:03;100429.34;;;11.93;82.51
75942;BME280;64622;46.220;19.878;2022-12-24T11:08:32;100427.81;;;11.91;80.87
75942;BME280;64622;46.220;19.878;2022-12-24T11:11:03;100442.94;;;12.00;81.47
75942;BME280;64622;46.220;19.878;2022-12-24T11:13:34;100445.78;;;11.98;81.66
75942;BME280;64622;46.220;19.878;2022-12-24T11:18:47;100449.31;;;11.99;81.95
75942;BME280;64622;46.220;19.878;2022-12-24T11:21:38;100456.38;;;12.08;79.22
75942;BME280;64622;46.220;19.878;2022-12-24T11:26:33;100448.00;;;12.11;79.98
75942;BME280;64622;46.220;19.878;2022-12-24T11:29:20;100451.88;;;12.16;78.74
75942;BME280;64622;46.220;19.878;2022-12-24T11:31:49;100464.59;;;12.14;79.31
75942;BME280;64622;46.220;19.878;2022-12-24T11:36:47;100458.41;;;12.14;78.93
75942;BME280;64622;46.220;19.878;2022-12-24T11:39:18;100453.87;;;12.06;78.90
75942;BME280;64622;46.220;19.878;2022-12-24T11:41:45;100448.50;;;12.06;78.49
75942;BME280;64622;46.220;19.878;2022-12-24T11:44:12;100454.34;;;12.02;79.13
75942;BME280;64622;46.220;19.878;2022-12-24T11:46:42;100437.06;;;11.96;79.72
75942;BME280;64622;46.220;19.878;2022-12-24T11:49:40;100439.94;;;12.03;79.03
75942;BME280;64622;46.220;19.878;2022-12-24T11:52:16;100435.22;;;11.97;79.47
75942;BME280;64622;46.220;19.878;2022-12-24T12:00:36;100441.13;;;12.24;79.10
75942;BME280;64622;46.220;19.878;2022-12-24T12:03:19;100446.03;;;12.53;78.17
75942;BME280;64622;46.220;19.878;2022-12-24T12:05:50;100445.31;;;12.83;76.91
75942;BME280;64622;46.220;19.878;2022-12-24T12:08:19;100438.28;;;12.90;76.56
75942;BME280;64622;46.220;19.878;2022-12-24T12:10:48;100445.19;;;12.76;76.58
75942;BME280;64622;46.220;19.878;2022-12-24T12:13:27;100438.47;;;12.64;76.43
75942;BME280;64622;46.220;19.878;2022-12-24T12:16:36;100437.81;;;12.70;76.22
75942;BME280;64622;46.220;19.878;2022-12-24T12:19:27;100456.25;;;12.73;77.52
75942;BME280;64622;46.220;19.878;2022-12-24T12:21:58;100457.94;;;12.58;78.83
75942;BME280;64622;46.220;19.878;2022-12-24T12:24:36;100460.78;;;12.57;78.90
75942;BME280;64622;46.220;19.878;2022-12-24T12:27:24;100462.12;;;12.45;79.39
75942;BME280;64622;46.220;19.878;2022-12-24T12:30:02;100478.22;;;12.37;79.60
75942;BME280;64622;46.220;19.878;2022-12-24T12:32:34;100476.88;;;12.25;79.35
75942;BME280;64622;46.220;19.878;2022-12-24T12:35:14;100485.44;;;12.20;80.03
75942;BME280;64622;46.220;19.878;2022-12-24T12:37:53;100481.84;;;12.12;79.70
75942;BME280;64622;46.220;19.878;2022-12-24T12:40:29;100489.91;;;12.04;80.36
75942;BME280;64622;46.220;19.878;2022-12-24T12:46:10;100480.47;;;11.92;81.04
75942;BME280;64622;46.220;19.878;2022-12-24T12:52:01;100481.63;;;11.81;80.95
75942;BME280;64622;46.220;19.878;2022-12-24T12:57:18;100481.56;;;11.73;80.36
75942;BME280;64622;46.220;19.878;2022-12-24T13:00:20;100493.97;;;11.66;80.59
75942;BME280;64622;46.220;19.878;2022-12-24T13:02:59;100492.75;;;11.61;80.66
75942;BME280;64622;46.220;19.878;2022-12-24T13:12:13;100512.78;;;11.57;79.76
75942;BME280;64622;46.220;19.878;2022-12-24T13:20:16;100524.16;;;11.51;79.29
75942;BME280;64622;46.220;19.878;2022-12-24T13:23:11;100521.91;;;11.38;80.42
75942;BME280;64622;46.220;19.878;2022-12-24T13:25:42;100534.00;;;11.42;80.06
75942;BME280;64622;46.220;19.878;2022-12-24T13:36:11;100542.41;;;11.47;79.27
75942;BME280;64622;46.220;19.878;2022-12-24T13:38:50;100542.25;;;11.49;79.84
75942;BME280;64622;46.220;19.878;2022-12-24T13:49:48;100561.50;;;11.27;80.48
75942;BME280;64622;46.220;19.878;2022-12-24T13:52:24;100564.00;;;11.20;80.92
75942;BME280;64622;46.220;19.878;2022-12-24T13:57:39;100571.44;;;11.09;81.56
75942;BME280;64622;46.220;19.878;2022-12-24T14:02:55;100572.50;;;10.98;81.48
75942;BME280;64622;46.220;19.878;2022-12-24T14:10:42;100574.19;;;10.99;80.51
75942;BME280;64622;46.220;19.878;2022-12-24T14:18:34;100572.44;;;11.08;78.90
75942;BME280;64622;46.220;19.878;2022-12-24T14:21:04;100578.56;;;11.00;79.42
75942;BME280;64622;46.220;19.878;2022-12-24T14:23:36;100585.22;;;10.96;79.71
75942;BME280;64622;46.220;19.878;2022-12-24T14:26:12;100595.94;;;10.79;80.47
75942;BME280;64622;46.220;19.878;2022-12-24T14:28:43;100595.84;;;10.71;81.03
75942;BME280;64622;46.220;19.878;2022-12-24T14:31:16;100605.63;;;10.62;81.34
75942;BME280;64622;46.220;19.878;2022-12-24T14:33:44;100607.69;;;10.51;82.14
75942;BME280;64622;46.220;19.878;2022-12-24T14:36:13;100617.78;;;10.57;81.49